Abram, Texas
Current Conditions -  °F | °C
As of 3:53 PM on Monday 20 Oct 2014 (Local Time) from KMFE Reporting Station
Overcast Overcast  
Wind Chill: 80°   Ceiling: 7000
Heat Index: 84°   Visibility: 10mi
Dew Point: 71°   Wind: 10mph
Humidity: 74%   Direction: 10°N
Pressure: 29.89"   Gusts: NA
Location:  26.2167°N, 98.325°W
Report Text: KMFE 202053Z 01009KT 10SM SCT040 BKN070 OVC085 27/22 A2989 RMK AO2 RAB28E52 SLP120 P0004 60004 T02670217 56024
Loading
Personal Weather Stations






























Interactive Weather Map New forecast layout! Learn more

10-Day Weather Forecast

Advertisements
Track Severe Weather on mobile